Time;durP1;ratioP1;P1;durP2;ratioP2;P2;SDS_P1;SDS_P2;PMS_P1;PMS_P2;Temp;Humidity;BMP_temperature;BMP_pressure;BME280_temperature;BME280_humidity;BME280_pressure;Samples;Min_cycle;Max_cycle;Signal;HPM_P1;HPM_P2
2023/04/29 00:01:21;;;;;;;20.67;14.17;;;10.40;99.90;;;;;;5060021;28;20597;-61
2023/04/29 00:03:48;;;;;;;20.47;14.40;;;10.40;99.90;;;;;;5073391;28;20299;-59
2023/04/29 00:06:15;;;;;;;17.93;12.77;;;10.40;99.90;;;;;;5071134;28;20218;-59
2023/04/29 00:08:43;;;;;;;21.93;15.00;;;10.50;99.90;;;;;;5071954;28;20238;-59
2023/04/29 00:11:10;;;;;;;19.33;14.17;;;10.40;99.90;;;;;;5069602;28;20222;-58
2023/04/29 00:13:39;;;;;;;21.30;14.57;;;10.30;99.90;;;;;;5076365;28;20196;-61
2023/04/29 00:16:07;;;;;;;21.30;14.47;;;10.50;99.90;;;;;;5076546;28;20209;-61
2023/04/29 00:18:36;;;;;;;24.97;15.23;;;10.40;99.90;;;;;;5077769;28;20226;-61
2023/04/29 00:21:04;;;;;;;22.13;14.67;;;10.40;99.90;;;;;;5075805;28;20208;-59
2023/04/29 00:23:32;;;;;;;20.37;14.83;;;10.30;99.90;;;;;;5057278;28;20194;-58
2023/04/29 00:25:59;;;;;;;25.27;16.67;;;10.30;99.90;;;;;;5076526;28;20222;-59
2023/04/29 00:28:27;;;;;;;24.07;16.47;;;10.40;99.90;;;;;;5075754;28;20754;-61
2023/04/29 00:30:54;;;;;;;25.83;17.27;;;10.50;99.90;;;;;;5076924;28;20195;-61
2023/04/29 00:33:22;;;;;;;26.63;17.07;;;10.60;99.90;;;;;;5074967;28;20311;-59
2023/04/29 00:35:49;;;;;;;23.67;17.00;;;10.50;99.90;;;;;;5058826;28;20208;-58
2023/04/29 00:38:16;;;;;;;25.47;17.57;;;10.40;99.90;;;;;;5058433;28;20199;-59
2023/04/29 00:40:43;;;;;;;29.37;17.90;;;10.40;99.90;;;;;;5074996;28;20223;-59
2023/04/29 00:43:10;;;;;;;31.07;18.83;;;10.30;99.90;;;;;;5054979;28;20209;-59
2023/04/29 00:45:37;;;;;;;28.23;18.43;;;10.40;99.90;;;;;;5056155;28;20210;-59
2023/04/29 00:48:04;;;;;;;30.00;19.47;;;10.40;99.90;;;;;;5076494;28;20218;-59
2023/04/29 00:50:31;;;;;;;25.57;18.33;;;10.30;99.90;;;;;;5072935;28;20217;-61
2023/04/29 00:52:59;;;;;;;30.43;19.47;;;10.30;99.90;;;;;;5075013;28;20214;-61
2023/04/29 00:55:27;;;;;;;29.70;19.10;;;10.40;99.90;;;;;;5035665;28;20203;-62
2023/04/29 00:57:54;;;;;;;27.27;19.73;;;10.30;99.90;;;;;;5074303;28;20298;-61
2023/04/29 01:00:21;;;;;;;32.30;18.73;;;10.30;99.90;;;;;;5057589;28;20237;-61
2023/04/29 01:02:49;;;;;;;31.20;19.03;;;10.40;99.90;;;;;;5075318;28;20234;-61
2023/04/29 01:05:16;;;;;;;27.50;19.37;;;10.30;99.90;;;;;;5055290;28;20209;-61
2023/04/29 01:07:49;;;;;;;33.90;19.40;;;10.30;99.90;;;;;;5040485;28;20251;-61
2023/04/29 01:10:43;;;;;;;28.63;18.90;;;10.40;99.90;;;;;;5057005;28;20206;-61
2023/04/29 01:13:30;;;;;;;28.97;19.83;;;10.20;99.90;;;;;;5064475;28;20240;-61
2023/04/29 01:16:05;;;;;;;33.70;20.63;;;10.30;99.90;;;;;;5075707;28;20679;-61
2023/04/29 01:18:38;;;;;;;30.73;20.07;;;10.30;99.90;;;;;;5064051;28;20320;-64
2023/04/29 01:21:05;;;;;;;32.80;20.33;;;10.40;99.90;;;;;;5060488;28;20207;-61
2023/04/29 01:23:32;;;;;;;37.30;21.60;;;10.40;99.90;;;;;;5077235;28;20208;-59
2023/04/29 01:25:59;;;;;;;34.63;20.77;;;10.40;99.90;;;;;;5075530;28;20309;-59
2023/04/29 01:28:47;;;;;;;31.23;20.33;;;10.40;99.90;;;;;;5077034;28;20214;-58
2023/04/29 01:31:47;;;;;;;32.83;21.90;;;10.50;99.90;;;;;;5058530;28;20276;-59
2023/04/29 01:34:37;;;;;;;32.73;20.77;;;10.50;99.90;;;;;;5060309;28;20206;-59
2023/04/29 01:37:11;;;;;;;33.93;21.93;;;10.50;99.90;;;;;;5029530;28;21065;-59
2023/04/29 01:39:50;;;;;;;39.53;21.57;;;10.20;99.90;;;;;;5060665;28;20630;-61
2023/04/29 01:42:33;;;;;;;40.20;21.60;;;10.30;99.90;;;;;;5073818;28;20592;-61
2023/04/29 01:45:05;;;;;;;37.93;22.43;;;10.30;99.90;;;;;;5067667;28;20648;-61
2023/04/29 01:47:32;;;;;;;40.03;21.40;;;10.40;99.90;;;;;;5076748;28;20739;-61
2023/04/29 01:50:01;;;;;;;38.67;21.90;;;10.30;99.90;;;;;;5076306;28;20203;-61
2023/04/29 01:52:28;;;;;;;38.77;22.50;;;10.30;99.90;;;;;;5069681;28;20249;-61
2023/04/29 01:54:55;;;;;;;34.43;21.73;;;10.30;99.90;;;;;;5072049;28;21015;-61
2023/04/29 01:57:22;;;;;;;37.13;22.03;;;10.20;99.90;;;;;;5070226;28;20234;-61
2023/04/29 01:59:49;;;;;;;34.37;20.43;;;10.30;99.90;;;;;;5068604;28;20214;-61
2023/04/29 02:02:19;;;;;;;37.70;21.70;;;10.30;99.90;;;;;;5050654;28;20685;-61
2023/04/29 02:04:48;;;;;;;34.23;21.97;;;10.30;99.90;;;;;;5070031;28;20226;-61
2023/04/29 02:07:16;;;;;;;33.47;21.83;;;10.10;99.90;;;;;;5077247;28;20264;-63
2023/04/29 02:09:43;;;;;;;35.67;21.30;;;10.30;99.90;;;;;;5075646;28;20670;-61
2023/04/29 02:12:10;;;;;;;42.63;22.90;;;10.30;99.90;;;;;;5077936;28;20237;-61
2023/04/29 02:14:36;;;;;;;38.50;22.43;;;10.20;99.90;;;;;;5076068;28;20201;-64
2023/04/29 02:17:03;;;;;;;36.27;21.57;;;10.20;99.90;;;;;;5076439;28;20666;-61
2023/04/29 02:19:30;;;;;;;39.43;22.50;;;10.30;99.90;;;;;;5070718;28;20227;-61
2023/04/29 02:21:57;;;;;;;38.07;23.57;;;10.30;99.90;;;;;;5069170;28;20202;-64
2023/04/29 02:24:24;;;;;;;38.50;21.47;;;10.30;99.90;;;;;;5063445;28;20678;-61
2023/04/29 02:26:52;;;;;;;41.67;21.97;;;10.30;99.90;;;;;;5068281;28;20904;-61
2023/04/29 02:29:19;;;;;;;36.67;21.77;;;10.30;99.90;;;;;;5046982;28;20217;-61
2023/04/29 02:31:46;;;;;;;42.77;22.70;;;10.10;99.90;;;;;;5066689;28;20857;-61
2023/04/29 02:34:13;;;;;;;42.73;22.90;;;10.10;99.90;;;;;;5068470;28;20207;-61
2023/04/29 02:36:40;;;;;;;35.03;21.27;;;10.10;99.90;;;;;;5065028;28;20582;-61
2023/04/29 02:39:07;;;;;;;37.27;21.20;;;10.20;99.90;;;;;;5064631;28;20244;-61
2023/04/29 02:41:34;;;;;;;41.40;22.27;;;10.20;99.90;;;;;;5066112;28;20228;-58
2023/04/29 02:44:01;;;;;;;34.40;21.00;;;10.20;99.90;;;;;;5065388;28;20217;-61
2023/04/29 02:46:27;;;;;;;39.30;21.57;;;10.20;99.90;;;;;;5067657;28;22254;-61
2023/04/29 02:48:55;;;;;;;34.63;22.20;;;10.20;99.90;;;;;;5069787;28;20210;-61
2023/04/29 02:51:21;;;;;;;36.80;20.87;;;10.20;99.90;;;;;;5067608;28;20203;-58
2023/04/29 02:53:48;;;;;;;40.47;22.07;;;10.20;99.90;;;;;;5063331;28;20777;-59
2023/04/29 02:56:15;;;;;;;36.10;21.37;;;10.30;99.90;;;;;;5063029;28;20200;-61
2023/04/29 02:58:43;;;;;;;37.80;21.40;;;10.40;99.90;;;;;;5067074;28;20204;-61
2023/04/29 03:01:10;;;;;;;35.30;20.13;;;10.40;99.90;;;;;;5034078;28;20210;-60
2023/04/29 03:03:37;;;;;;;35.73;19.53;;;10.40;99.90;;;;;;5066669;28;20330;-60
2023/04/29 03:06:04;;;;;;;34.43;19.20;;;10.40;99.90;;;;;;5064690;28;20235;-61
2023/04/29 03:08:31;;;;;;;33.30;18.27;;;10.30;99.90;;;;;;5065923;28;20614;-60
2023/04/29 03:10:58;;;;;;;31.57;19.20;;;10.30;99.90;;;;;;5046721;28;20813;-61
2023/04/29 03:13:25;;;;;;;29.77;19.60;;;10.20;99.90;;;;;;5058044;28;20295;-61
2023/04/29 03:15:52;;;;;;;30.00;19.30;;;10.10;99.90;;;;;;5054150;28;20207;-61
2023/04/29 03:18:19;;;;;;;35.00;18.93;;;10.20;99.90;;;;;;5052104;28;20317;-61
2023/04/29 03:20:46;;;;;;;31.03;19.80;;;10.20;99.90;;;;;;5072181;28;20198;-61
2023/04/29 03:23:13;;;;;;;29.60;17.63;;;10.30;99.90;;;;;;5069958;28;20204;-60
2023/04/29 03:25:40;;;;;;;31.63;17.50;;;10.20;99.90;;;;;;5037223;28;20231;-61
2023/04/29 03:28:07;;;;;;;29.37;18.67;;;10.20;99.90;;;;;;5052169;28;20580;-60
2023/04/29 03:30:34;;;;;;;32.37;17.93;;;10.20;99.90;;;;;;5040271;28;20190;-60
2023/04/29 03:33:01;;;;;;;31.60;17.57;;;10.30;99.90;;;;;;5070523;28;20606;-60
2023/04/29 03:35:28;;;;;;;32.00;17.67;;;10.30;99.90;;;;;;5075842;28;20231;-62
2023/04/29 03:37:55;;;;;;;28.50;16.73;;;10.30;99.90;;;;;;5072659;28;20329;-60
2023/04/29 03:40:22;;;;;;;27.30;17.63;;;10.40;99.90;;;;;;5074017;28;20627;-61
2023/04/29 03:42:49;;;;;;;29.70;17.20;;;10.30;99.90;;;;;;5072332;28;20716;-60
2023/04/29 03:45:16;;;;;;;25.87;16.53;;;10.40;99.90;;;;;;5074106;28;20257;-61
2023/04/29 03:47:43;;;;;;;31.53;17.97;;;10.40;99.90;;;;;;5054878;28;20220;-61
2023/04/29 03:50:10;;;;;;;25.93;16.77;;;10.50;99.90;;;;;;5074971;28;20195;-61
2023/04/29 03:52:38;;;;;;;27.20;16.43;;;10.50;99.90;;;;;;5074039;28;20676;-61
2023/04/29 03:55:05;;;;;;;28.13;16.60;;;10.30;99.90;;;;;;5072651;28;20252;-61
2023/04/29 03:57:32;;;;;;;24.27;15.13;;;10.50;99.90;;;;;;5074356;28;20202;-61
2023/04/29 03:59:58;;;;;;;25.50;15.47;;;10.40;99.90;;;;;;5056752;28;20208;-61
2023/04/29 04:02:26;;;;;;;25.53;15.40;;;10.50;99.90;;;;;;5074923;28;20206;-60
2023/04/29 04:04:54;;;;;;;27.73;16.13;;;10.40;99.90;;;;;;5074663;28;20230;-60
2023/04/29 04:07:21;;;;;;;24.40;14.53;;;10.50;99.90;;;;;;5056494;28;20445;-60
2023/04/29 04:09:48;;;;;;;21.90;14.63;;;10.50;99.90;;;;;;5071375;28;20279;-61
2023/04/29 04:12:15;;;;;;;24.80;15.53;;;10.40;99.90;;;;;;5054469;28;20205;-61
2023/04/29 04:14:41;;;;;;;23.23;15.43;;;10.40;99.90;;;;;;5052576;28;20205;-61
2023/04/29 04:17:08;;;;;;;27.67;14.87;;;10.50;99.90;;;;;;5056050;28;22052;-61
2023/04/29 04:19:35;;;;;;;23.67;15.57;;;10.50;99.90;;;;;;5072085;28;20227;-61
2023/04/29 04:22:03;;;;;;;25.27;14.07;;;10.50;99.90;;;;;;5071038;28;20247;-61
2023/04/29 04:24:30;;;;;;;21.93;14.10;;;10.50;99.90;;;;;;5072593;28;21117;-61
2023/04/29 04:26:57;;;;;;;28.33;14.30;;;10.50;99.90;;;;;;5070160;28;20341;-61
2023/04/29 04:29:24;;;;;;;23.90;15.00;;;10.50;99.90;;;;;;5069395;28;20669;-61
2023/04/29 04:31:51;;;;;;;24.20;14.83;;;10.50;99.90;;;;;;5069545;28;20675;-61
2023/04/29 04:34:18;;;;;;;19.47;14.40;;;10.40;99.90;;;;;;5072169;28;20309;-60
2023/04/29 04:36:45;;;;;;;19.97;14.00;;;10.40;99.90;;;;;;5069988;28;20202;-61
2023/04/29 04:39:12;;;;;;;28.30;14.10;;;10.30;99.90;;;;;;5074785;28;20268;-61
2023/04/29 04:41:39;;;;;;;22.57;15.60;;;10.30;99.90;;;;;;5071526;28;20241;-61
2023/04/29 04:44:06;;;;;;;22.67;15.20;;;10.30;99.90;;;;;;5052776;28;20253;-60
2023/04/29 04:46:34;;;;;;;27.17;16.40;;;10.40;99.90;;;;;;5074318;28;20214;-61
2023/04/29 04:49:00;;;;;;;21.20;14.50;;;10.40;99.90;;;;;;5075067;28;20195;-61
2023/04/29 04:51:28;;;;;;;27.93;15.83;;;10.40;99.90;;;;;;5056260;28;20232;-61
2023/04/29 04:53:55;;;;;;;23.63;14.60;;;10.50;99.90;;;;;;5075592;28;20681;-60
2023/04/29 04:56:22;;;;;;;20.53;14.90;;;10.50;99.90;;;;;;5074938;28;20586;-61
2023/04/29 04:58:49;;;;;;;26.20;15.73;;;10.60;99.90;;;;;;5073317;28;20192;-64
2023/04/29 05:01:16;;;;;;;23.33;15.23;;;10.60;99.90;;;;;;5075172;28;20565;-61
2023/04/29 05:03:44;;;;;;;22.33;15.37;;;10.60;99.90;;;;;;5075036;28;20640;-60
2023/04/29 05:06:11;;;;;;;22.53;14.80;;;10.50;99.90;;;;;;5076207;28;20252;-61
2023/04/29 05:08:38;;;;;;;20.70;14.53;;;10.50;99.90;;;;;;5077195;28;20292;-61
2023/04/29 05:11:05;;;;;;;26.93;15.10;;;10.40;99.90;;;;;;5058913;28;20210;-60
2023/04/29 05:13:33;;;;;;;24.83;15.17;;;10.50;99.90;;;;;;5063037;28;21898;-61
2023/04/29 05:16:03;;;;;;;21.33;14.73;;;10.60;99.90;;;;;;5044504;28;20206;-61
2023/04/29 05:18:32;;;;;;;24.17;14.77;;;10.60;99.90;;;;;;5076162;28;20215;-61
2023/04/29 05:20:59;;;;;;;25.40;15.07;;;10.30;99.90;;;;;;5076707;28;20211;-61
2023/04/29 05:23:26;;;;;;;20.70;14.33;;;10.40;99.90;;;;;;5059463;28;21067;-60
2023/04/29 05:25:54;;;;;;;21.00;15.07;;;10.40;99.90;;;;;;5060850;28;20647;-60
2023/04/29 05:28:21;;;;;;;26.33;15.10;;;10.50;99.90;;;;;;5075390;28;20232;-60
2023/04/29 05:30:51;;;;;;;21.03;14.73;;;10.50;99.90;;;;;;5076348;28;20198;-61
2023/04/29 05:33:19;;;;;;;22.57;14.67;;;10.50;99.90;;;;;;5058103;28;20207;-61
2023/04/29 05:35:46;;;;;;;24.50;14.90;;;10.50;99.90;;;;;;5072127;28;20194;-61
2023/04/29 05:38:13;;;;;;;28.53;15.17;;;10.40;99.90;;;;;;5073482;28;20204;-60
2023/04/29 05:40:40;;;;;;;24.53;15.23;;;10.40;99.90;;;;;;5078133;28;20280;-60
2023/04/29 05:43:07;;;;;;;22.07;14.73;;;10.50;99.90;;;;;;5079721;28;20206;-61
2023/04/29 05:45:34;;;;;;;22.77;14.00;;;10.50;99.90;;;;;;5080479;28;20211;-61
2023/04/29 05:48:01;;;;;;;22.03;14.40;;;10.50;99.90;;;;;;5077830;28;20219;-61
2023/04/29 05:50:28;;;;;;;22.73;14.80;;;10.40;99.90;;;;;;5080633;28;20532;-61
2023/04/29 05:52:55;;;;;;;21.03;14.07;;;10.50;99.90;;;;;;5079346;28;20281;-63
2023/04/29 05:55:22;;;;;;;24.27;14.57;;;10.50;99.90;;;;;;5078576;28;20195;-61
2023/04/29 05:57:49;;;;;;;24.67;14.30;;;10.60;99.90;;;;;;5058572;28;20204;-61
2023/04/29 06:00:16;;;;;;;21.47;13.30;;;10.60;99.90;;;;;;5058207;28;20569;-61
2023/04/29 06:02:44;;;;;;;21.70;13.70;;;10.60;99.90;;;;;;5065307;28;20265;-61
2023/04/29 06:05:25;;;;;;;20.10;13.63;;;10.50;99.90;;;;;;5070503;28;20213;-61
2023/04/29 06:07:52;;;;;;;20.03;13.57;;;10.60;99.90;;;;;;5060357;28;20227;-61
2023/04/29 06:10:19;;;;;;;22.37;13.20;;;10.50;99.90;;;;;;5076590;28;20736;-61
2023/04/29 06:12:49;;;;;;;20.10;14.60;;;10.50;99.90;;;;;;5053029;28;20187;-60
2023/04/29 06:15:16;;;;;;;21.70;13.80;;;10.70;99.90;;;;;;5078873;28;21172;-61
2023/04/29 06:17:43;;;;;;;19.47;13.67;;;10.70;99.90;;;;;;5074447;28;20234;-62
2023/04/29 06:20:11;;;;;;;20.93;13.30;;;10.80;99.90;;;;;;5072649;28;20677;-61
2023/04/29 06:22:38;;;;;;;23.13;13.30;;;10.90;99.90;;;;;;5047857;28;20261;-59
2023/04/29 06:25:05;;;;;;;19.50;13.67;;;10.90;99.90;;;;;;5073996;28;20203;-61
2023/04/29 06:27:32;;;;;;;24.47;13.27;;;11.00;99.90;;;;;;5074108;28;20244;-61
2023/04/29 06:29:59;;;;;;;19.80;12.00;;;11.00;99.90;;;;;;5071290;28;20207;-61
2023/04/29 06:32:26;;;;;;;19.87;13.07;;;10.90;99.90;;;;;;5076908;28;20557;-61
2023/04/29 06:34:53;;;;;;;19.70;12.90;;;10.90;99.90;;;;;;5074157;28;21100;-61
2023/04/29 06:37:20;;;;;;;19.20;13.27;;;10.90;99.90;;;;;;5072487;28;20674;-64
2023/04/29 06:39:47;;;;;;;20.13;12.37;;;11.00;99.90;;;;;;5053568;28;20213;-61
2023/04/29 06:42:14;;;;;;;22.53;13.33;;;11.10;99.90;;;;;;5069507;28;20206;-61
2023/04/29 06:44:41;;;;;;;18.10;13.10;;;11.10;99.90;;;;;;5054976;28;20195;-60
2023/04/29 06:47:07;;;;;;;19.10;13.50;;;11.10;99.90;;;;;;4704051;28;9999826;-60
2023/04/29 06:49:35;;;;;;;15.17;12.13;;;11.20;99.90;;;;;;5046708;28;20197;-60
2023/04/29 06:52:02;;;;;;;17.50;11.53;;;11.10;99.90;;;;;;5062644;28;20201;-61
2023/04/29 06:54:28;;;;;;;17.83;11.73;;;11.00;99.90;;;;;;5054477;28;20199;-62
2023/04/29 06:56:57;;;;;;;17.97;12.67;;;11.00;99.90;;;;;;5056797;28;20222;-60
2023/04/29 06:59:23;;;;;;;18.87;12.50;;;11.00;99.90;;;;;;5073923;28;20727;-60
2023/04/29 07:01:51;;;;;;;17.73;12.37;;;11.20;99.90;;;;;;5071179;28;20219;-61
2023/04/29 07:04:18;;;;;;;17.17;12.90;;;11.20;99.90;;;;;;5073053;28;20787;-61
2023/04/29 07:06:45;;;;;;;18.67;12.70;;;11.10;99.90;;;;;;5076650;28;20622;-61
2023/04/29 07:09:13;;;;;;;19.47;13.40;;;11.20;99.90;;;;;;5056132;28;20203;-61
2023/04/29 07:11:40;;;;;;;17.67;11.60;;;11.20;99.90;;;;;;5073427;28;20593;-61
2023/04/29 07:14:07;;;;;;;17.17;11.67;;;11.30;99.90;;;;;;5073316;28;20195;-61
2023/04/29 07:16:34;;;;;;;18.13;12.57;;;11.30;99.90;;;;;;5073002;28;20273;-61
2023/04/29 07:19:02;;;;;;;18.07;12.37;;;11.30;99.90;;;;;;5039387;28;20234;-61
2023/04/29 07:21:29;;;;;;;23.87;12.90;;;11.40;99.90;;;;;;5072966;28;20210;-61
2023/04/29 07:23:58;;;;;;;17.30;12.73;;;11.30;99.90;;;;;;5074086;28;20203;-60
2023/04/29 07:26:25;;;;;;;17.97;12.37;;;11.40;99.90;;;;;;5072411;28;20360;-60
2023/04/29 07:28:52;;;;;;;19.47;12.60;;;11.50;99.90;;;;;;5074780;28;21104;-60
2023/04/29 07:31:19;;;;;;;19.27;12.33;;;11.50;99.90;;;;;;5074103;28;20261;-60
2023/04/29 07:33:46;;;;;;;16.50;12.27;;;11.50;99.90;;;;;;5076270;28;20641;-61
2023/04/29 07:36:13;;;;;;;17.50;12.33;;;11.50;99.90;;;;;;5058596;28;20204;-61
2023/04/29 07:38:40;;;;;;;15.87;12.17;;;11.40;99.90;;;;;;5058485;28;20208;-61
2023/04/29 07:41:07;;;;;;;18.27;12.57;;;11.40;99.90;;;;;;5058289;28;20698;-60
2023/04/29 07:43:34;;;;;;;17.40;11.63;;;11.40;99.90;;;;;;5074437;28;20202;-61
2023/04/29 07:46:01;;;;;;;19.33;12.50;;;11.40;99.90;;;;;;5072719;28;20700;-61
2023/04/29 07:48:27;;;;;;;17.73;11.47;;;11.50;99.90;;;;;;5072163;28;20528;-61
2023/04/29 07:50:54;;;;;;;16.00;11.73;;;11.60;99.90;;;;;;5071793;28;20701;-61
2023/04/29 07:53:21;;;;;;;14.50;11.37;;;11.70;99.90;;;;;;5073326;28;20211;-60
2023/04/29 07:55:48;;;;;;;21.53;12.40;;;11.80;99.90;;;;;;5074918;28;20949;-61
2023/04/29 07:58:15;;;;;;;18.93;12.37;;;11.80;99.90;;;;;;5074833;28;20203;-60
2023/04/29 08:00:42;;;;;;;19.90;12.60;;;11.90;99.90;;;;;;5070469;28;20208;-60
2023/04/29 08:03:09;;;;;;;14.80;11.97;;;11.90;99.90;;;;;;5051100;28;20578;-61
2023/04/29 08:05:36;;;;;;;18.83;12.90;;;12.10;99.90;;;;;;5053817;28;20233;-61
2023/04/29 08:08:03;;;;;;;17.93;11.70;;;12.10;99.90;;;;;;5072304;28;20240;-60
2023/04/29 08:10:30;;;;;;;21.73;12.60;;;12.10;99.90;;;;;;5073068;28;20293;-61
2023/04/29 08:12:58;;;;;;;18.37;12.73;;;12.10;99.90;;;;;;5074860;28;20226;-60
2023/04/29 08:15:24;;;;;;;18.40;11.90;;;12.10;99.90;;;;;;5071102;28;20290;-61
2023/04/29 08:17:51;;;;;;;16.07;11.13;;;12.10;99.90;;;;;;5065807;28;20205;-61
2023/04/29 08:20:18;;;;;;;19.07;11.57;;;12.00;99.90;;;;;;5070253;28;20279;-60
2023/04/29 08:22:46;;;;;;;15.73;12.10;;;12.00;99.90;;;;;;5070974;28;20240;-61
2023/04/29 08:25:12;;;;;;;24.33;11.83;;;12.10;99.90;;;;;;5077710;28;20253;-61
2023/04/29 08:27:39;;;;;;;16.97;10.97;;;12.10;99.90;;;;;;5078140;28;20221;-61
2023/04/29 08:30:07;;;;;;;18.73;11.80;;;12.10;99.90;;;;;;5067551;28;20210;-63
2023/04/29 08:32:34;;;;;;;18.77;10.67;;;12.30;99.90;;;;;;5079137;28;20221;-61
2023/04/29 08:35:02;;;;;;;16.73;10.80;;;12.50;99.90;;;;;;5082008;28;20243;-62
2023/04/29 08:37:28;;;;;;;13.67;10.00;;;12.60;99.90;;;;;;5079369;28;20196;-60
2023/04/29 08:39:55;;;;;;;20.73;10.30;;;12.50;99.90;;;;;;5069550;28;20601;-61
2023/04/29 08:42:35;;;;;;;20.00;9.37;;;12.20;99.90;;;;;;5081074;28;20305;-63
2023/04/29 08:45:03;;;;;;;13.10;9.33;;;12.20;99.90;;;;;;5081584;28;20213;-60
2023/04/29 08:47:31;;;;;;;10.90;8.33;;;12.30;99.90;;;;;;5058476;28;20200;-60
2023/04/29 08:50:04;;;;;;;16.10;9.57;;;12.40;99.90;;;;;;5080978;28;20820;-60
2023/04/29 08:52:31;;;;;;;10.27;8.00;;;12.40;99.90;;;;;;5080225;28;20682;-61
2023/04/29 08:55:01;;;;;;;14.97;8.03;;;12.50;99.90;;;;;;5079776;28;20201;-62
2023/04/29 08:57:30;;;;;;;12.70;8.40;;;12.60;99.90;;;;;;5078946;28;20241;-60
2023/04/29 08:59:59;;;;;;;11.47;7.80;;;12.70;99.90;;;;;;5079127;28;20242;-60
2023/04/29 09:02:27;;;;;;;13.00;8.57;;;13.10;99.90;;;;;;5078119;28;20193;-61
2023/04/29 09:05:04;;;;;;;12.83;8.40;;;13.40;99.90;;;;;;5059213;28;20198;-61
2023/04/29 09:07:32;;;;;;;11.80;7.60;;;13.70;99.90;;;;;;5078307;28;20335;-60
2023/04/29 09:10:00;;;;;;;12.73;7.90;;;13.70;99.90;;;;;;5079356;28;20210;-60
2023/04/29 09:12:29;;;;;;;9.43;7.47;;;13.90;99.90;;;;;;5081930;28;20200;-61
2023/04/29 09:14:56;;;;;;;11.73;7.43;;;13.80;99.90;;;;;;5060274;28;20202;-61
2023/04/29 09:17:41;;;;;;;12.07;7.03;;;13.80;99.90;;;;;;5079143;28;21452;-61
2023/04/29 09:20:20;;;;;;;12.27;7.87;;;14.20;99.90;;;;;;5080813;28;20672;-61
2023/04/29 09:22:51;;;;;;;10.93;7.97;;;14.00;99.90;;;;;;5079148;28;20654;-61
2023/04/29 09:25:18;;;;;;;10.63;7.17;;;13.90;99.90;;;;;;5081747;28;20574;-61
2023/04/29 09:27:45;;;;;;;11.40;6.53;;;13.80;99.90;;;;;;5081135;28;20584;-61
2023/04/29 09:30:15;;;;;;;10.47;7.63;;;13.60;99.90;;;;;;5080504;28;20279;-61
2023/04/29 09:32:43;;;;;;;11.63;7.40;;;13.60;99.90;;;;;;5078448;28;20228;-61
2023/04/29 09:35:24;;;;;;;10.27;7.80;;;13.60;99.90;;;;;;5069734;28;20269;-61
2023/04/29 09:37:55;;;;;;;11.07;7.83;;;13.50;99.90;;;;;;5077985;28;20293;-60
2023/04/29 09:40:34;;;;;;;12.87;8.07;;;14.00;99.90;;;;;;5075647;28;20226;-60
2023/04/29 09:43:17;;;;;;;10.53;7.67;;;14.00;99.90;;;;;;5056185;28;20216;-60
2023/04/29 09:45:46;;;;;;;12.53;7.73;;;13.90;99.90;;;;;;5058112;28;20213;-60
2023/04/29 09:48:14;;;;;;;13.17;8.07;;;13.70;99.90;;;;;;5069973;28;20221;-61
2023/04/29 09:50:43;;;;;;;11.47;7.23;;;13.80;99.90;;;;;;5072790;28;20702;-60
2023/04/29 09:53:26;;;;;;;14.27;7.97;;;13.90;99.90;;;;;;5068542;28;20218;-61
2023/04/29 09:55:53;;;;;;;8.53;6.67;;;13.70;99.90;;;;;;5072176;28;20634;-60
2023/04/29 09:58:36;;;;;;;9.13;7.33;;;13.60;99.90;;;;;;5076662;28;20205;-61
2023/04/29 10:01:04;;;;;;;9.17;6.23;;;13.70;99.90;;;;;;5075734;28;20201;-60
2023/04/29 10:03:36;;;;;;;10.20;6.97;;;13.80;99.90;;;;;;5076814;28;20740;-60
2023/04/29 10:06:06;;;;;;;9.73;7.30;;;13.80;99.90;;;;;;5060726;28;20288;-61
2023/04/29 10:08:34;;;;;;;9.70;7.03;;;13.90;99.90;;;;;;5075581;28;20322;-61
2023/04/29 10:11:04;;;;;;;9.70;6.20;;;13.80;99.90;;;;;;5070813;28;20300;-61
2023/04/29 10:13:34;;;;;;;8.13;6.97;;;13.60;99.90;;;;;;5073912;28;20259;-61
2023/04/29 10:16:25;;;;;;;9.73;7.27;;;13.70;99.90;;;;;;5077437;28;20830;-60
2023/04/29 10:18:55;;;;;;;7.27;5.13;;;13.80;99.90;;;;;;5076310;28;20370;-60
2023/04/29 10:21:30;;;;;;;8.73;4.97;;;13.70;99.90;;;;;;5071819;28;20202;-61
2023/04/29 10:23:58;;;;;;;7.33;5.73;;;13.80;99.90;;;;;;5065398;28;20239;-61
2023/04/29 10:26:28;;;;;;;6.20;5.43;;;14.20;99.90;;;;;;5052647;28;20208;-60
2023/04/29 10:28:56;;;;;;;7.27;5.60;;;14.50;99.90;;;;;;4703266;28;10000433;-61
2023/04/29 10:31:26;;;;;;;8.57;5.43;;;14.60;99.90;;;;;;5059644;28;20210;-60
2023/04/29 10:33:56;;;;;;;7.00;5.00;;;14.50;99.90;;;;;;5065794;28;20244;-60
2023/04/29 10:36:27;;;;;;;7.10;4.90;;;14.40;99.90;;;;;;5068542;28;20273;-60
2023/04/29 10:38:58;;;;;;;7.67;5.43;;;14.20;99.90;;;;;;5066149;28;20228;-61
2023/04/29 10:41:36;;;;;;;6.60;5.20;;;14.40;99.90;;;;;;5072207;28;20784;-60
2023/04/29 10:44:03;;;;;;;7.33;5.20;;;14.30;99.90;;;;;;5070437;28;20212;-61
2023/04/29 10:46:30;;;;;;;6.87;5.23;;;14.40;99.90;;;;;;5075217;28;20206;-60
2023/04/29 10:49:02;;;;;;;7.13;5.27;;;14.10;99.90;;;;;;5023867;28;20212;-61
2023/04/29 10:51:43;;;;;;;9.27;5.13;;;14.00;99.90;;;;;;5051112;28;20205;-60
2023/04/29 10:54:24;;;;;;;6.80;5.10;;;13.90;99.90;;;;;;5065919;28;20696;-61
2023/04/29 10:56:53;;;;;;;6.97;5.37;;;13.90;99.90;;;;;;5057975;28;20201;-60
2023/04/29 10:59:41;;;;;;;8.17;5.33;;;13.90;99.90;;;;;;5065614;28;20210;-60
2023/04/29 11:02:09;;;;;;;6.70;4.73;;;14.10;99.90;;;;;;5062779;28;20200;-61
2023/04/29 11:05:06;;;;;;;6.57;5.47;;;14.00;99.90;;;;;;5071131;28;20209;-60
2023/04/29 11:07:33;;;;;;;8.30;5.53;;;14.10;99.90;;;;;;5067606;28;20275;-61
2023/04/29 11:10:02;;;;;;;9.93;6.00;;;14.10;99.90;;;;;;5071462;28;20653;-60
2023/04/29 11:12:29;;;;;;;7.07;5.80;;;14.00;99.90;;;;;;5069809;28;20213;-60
2023/04/29 11:15:03;;;;;;;7.67;4.60;;;13.90;99.90;;;;;;5052390;28;20291;-61
2023/04/29 11:17:37;;;;;;;5.70;4.53;;;14.10;99.90;;;;;;5074939;28;20201;-60
2023/04/29 11:20:12;;;;;;;8.97;5.50;;;14.30;99.90;;;;;;5048540;28;20908;-61
2023/04/29 11:22:39;;;;;;;5.53;4.77;;;14.40;99.90;;;;;;5068696;28;20312;-60
2023/04/29 11:25:07;;;;;;;5.83;4.70;;;14.40;99.90;;;;;;5053196;28;20204;-60
2023/04/29 11:27:41;;;;;;;4.90;4.17;;;14.40;99.90;;;;;;5066787;28;20231;-61
2023/04/29 11:30:08;;;;;;;7.57;4.93;;;14.60;99.90;;;;;;5067606;28;20629;-60
2023/04/29 11:32:36;;;;;;;8.87;4.93;;;14.80;99.90;;;;;;5072559;28;21714;-61
2023/04/29 11:35:14;;;;;;;7.50;4.80;;;14.90;99.90;;;;;;5068067;28;20208;-59
2023/04/29 11:37:42;;;;;;;8.03;4.80;;;15.10;99.90;;;;;;5068405;28;20600;-60
2023/04/29 11:40:11;;;;;;;7.07;4.87;;;15.30;99.90;;;;;;5071215;28;20327;-59
2023/04/29 11:42:46;;;;;;;6.53;4.87;;;15.80;99.90;;;;;;5065885;28;20213;-60
2023/04/29 11:45:14;;;;;;;7.03;4.93;;;15.60;99.90;;;;;;5048624;28;20968;-60
2023/04/29 11:47:45;;;;;;;8.07;4.97;;;15.70;99.90;;;;;;5058918;28;20200;-60
2023/04/29 11:50:15;;;;;;;4.33;3.93;;;16.00;99.90;;;;;;5048796;28;22366;-60
2023/04/29 11:52:43;;;;;;;5.53;4.53;;;17.00;99.90;;;;;;5071803;28;20205;-59
2023/04/29 11:55:11;;;;;;;6.77;3.93;;;17.00;99.90;;;;;;5066717;28;20298;-59
2023/04/29 11:57:39;;;;;;;6.53;4.53;;;16.70;99.90;;;;;;5064308;28;20207;-59
2023/04/29 12:00:11;;;;;;;6.50;4.53;;;16.60;99.90;;;;;;5050695;28;20832;-59
2023/04/29 12:02:42;;;;;;;6.93;4.07;;;15.80;99.90;;;;;;5071101;28;20200;-59
2023/04/29 12:05:11;;;;;;;5.53;3.47;;;16.30;99.90;;;;;;5065111;28;20287;-60
2023/04/29 12:07:39;;;;;;;6.97;3.90;;;16.60;99.90;;;;;;5070136;28;20247;-59
2023/04/29 12:10:10;;;;;;;5.47;3.50;;;16.80;99.90;;;;;;5073780;28;20292;-59
2023/04/29 12:12:42;;;;;;;4.60;3.63;;;16.60;99.90;;;;;;5067127;28;20200;-59
2023/04/29 12:15:10;;;;;;;5.23;4.03;;;16.50;99.90;;;;;;5048886;28;20203;-59
2023/04/29 12:17:38;;;;;;;5.60;3.90;;;16.50;99.90;;;;;;5055862;28;20211;-59
2023/04/29 12:20:08;;;;;;;5.70;4.40;;;16.70;99.90;;;;;;5059249;28;20335;-60
2023/04/29 12:22:35;;;;;;;4.67;3.43;;;16.80;99.90;;;;;;5066773;28;20192;-59
2023/04/29 12:25:03;;;;;;;6.00;3.67;;;16.20;99.90;;;;;;5043085;28;20236;-60
2023/04/29 12:27:32;;;;;;;3.57;3.27;;;16.40;99.90;;;;;;5050180;28;21394;-60
2023/04/29 12:29:59;;;;;;;4.27;3.57;;;16.20;99.90;;;;;;5065467;28;20341;-60
2023/04/29 12:32:26;;;;;;;3.37;2.80;;;16.10;99.90;;;;;;5066249;28;20218;-60
2023/04/29 12:34:54;;;;;;;4.20;3.27;;;16.20;99.90;;;;;;5072255;28;20674;-62
2023/04/29 12:37:22;;;;;;;4.33;2.90;;;16.80;99.90;;;;;;5074267;28;20656;-65
2023/04/29 12:39:50;;;;;;;3.60;2.70;;;16.70;99.90;;;;;;5072005;28;20217;-66
2023/04/29 12:42:17;;;;;;;4.27;2.80;;;16.80;99.90;;;;;;5069187;28;20215;-61